Time;durP1;ratioP1;P1;durP2;ratioP2;P2;SDS_P1;SDS_P2;PMS_P1;PMS_P2;Temp;Humidity;BMP_temperature;BMP_pressure;BME280_temperature;BME280_humidity;BME280_pressure;Samples;Min_cycle;Max_cycle;Signal;HPM_P1;HPM_P2
2023/08/26 00:00:02;;;;;;;;;;;;;;;-147.27;100.00;65176.34;5105799;28;19923;-69
2023/08/26 00:02:36;;;;;;;;;;;;;;;-147.27;100.00;65176.34;5119441;28;19960;-70
2023/08/26 00:05:02;;;;;;;;;;;;;;;-147.27;100.00;65176.34;5112800;28;19948;-69
2023/08/26 00:07:27;;;;;;;;;;;;;;;-147.27;100.00;65176.34;5115689;28;19942;-70
2023/08/26 00:09:53;;;;;;;;;;;;;;;-147.27;100.00;65176.34;5111969;28;19916;-69
2023/08/26 00:12:18;;;;;;;;;;;;;;;-147.27;100.00;65176.34;5114022;28;19916;-70
2023/08/26 00:14:46;;;;;;;;;;;;;;;-147.27;100.00;65176.34;5116919;28;19926;-70
2023/08/26 00:17:12;;;;;;;;;;;;;;;-147.27;100.00;65176.34;5109383;28;19916;-70
2023/08/26 00:19:37;;;;;;;;;;;;;;;-147.27;100.00;65176.34;5106635;28;20018;-69
2023/08/26 00:22:05;;;;;;;;;;;;;;;-147.27;100.00;65176.34;5106251;28;19920;-69
2023/08/26 00:24:30;;;;;;;;;;;;;;;-147.27;100.00;65176.34;5116792;28;20755;-69
2023/08/26 00:26:58;;;;;;;;;;;;;;;-147.27;100.00;65176.34;5118239;28;19979;-70
2023/08/26 00:29:24;;;;;;;;;;;;;;;-147.27;100.00;65176.34;5116329;28;19916;-70
2023/08/26 00:31:49;;;;;;;;;;;;;;;-147.27;100.00;65176.34;5114410;28;19998;-70
2023/08/26 00:34:15;;;;;;;;;;;;;;;-147.27;100.00;65176.34;5095818;28;19916;-71
2023/08/26 00:36:40;;;;;;;;;;;;;;;-147.27;100.00;65176.34;5113032;28;19945;-70
2023/08/26 00:39:06;;;;;;;;;;;;;;;-147.27;100.00;65176.34;5095608;28;19935;-70
2023/08/26 00:41:31;;;;;;;;;;;;;;;-147.27;100.00;65176.34;5117656;28;19944;-70
2023/08/26 00:43:57;;;;;;;;;;;;;;;-147.27;100.00;65176.34;5129221;27;19948;-70
2023/08/26 00:46:23;;;;;;;;;;;;;;;-147.27;100.00;65176.34;5092856;28;19920;-70
2023/08/26 00:48:48;;;;;;;;;;;;;;;-147.27;100.00;65176.34;5111650;28;19984;-70
2023/08/26 00:51:14;;;;;;;;;;;;;;;-147.27;100.00;65176.34;5112551;28;19923;-71
2023/08/26 00:53:40;;;;;;;;;;;;;;;-147.27;100.00;65176.34;5111520;28;19927;-70
2023/08/26 00:56:06;;;;;;;;;;;;;;;-147.27;100.00;65176.34;5094135;28;19920;-69
2023/08/26 00:58:32;;;;;;;;;;;;;;;-147.27;100.00;65176.34;5136012;27;19947;-69
2023/08/26 01:00:59;;;;;;;;;;;;;;;-147.27;100.00;65176.34;5131886;28;19927;-70
2023/08/26 01:03:25;;;;;;;;;;;;;;;-147.27;100.00;65176.34;5122972;27;19916;-70
2023/08/26 01:05:51;;;;;;;;;;;;;;;-147.27;100.00;65176.34;5099060;28;19939;-72
2023/08/26 01:08:17;;;;;;;;;;;;;;;-147.27;100.00;65176.34;5132074;27;19927;-71
2023/08/26 01:11:02;;;;;;;;;;;;;;;-147.27;100.00;65176.34;5114471;28;19983;-72
2023/08/26 01:13:36;;;;;;;;;;;;;;;-147.27;100.00;65176.34;5091953;28;19927;-70
2023/08/26 01:16:03;;;;;;;;;;;;;;;-147.27;100.00;65176.34;5110517;28;19916;-72
2023/08/26 01:18:28;;;;;;;;;;;;;;;-147.27;100.00;65176.34;5100500;28;19991;-72
2023/08/26 01:20:55;;;;;;;;;;;;;;;-147.27;100.00;65176.34;5095684;28;20008;-72
2023/08/26 01:23:41;;;;;;;;;;;;;;;-147.27;100.00;65176.34;5110140;28;19934;-72
2023/08/26 01:26:06;;;;;;;;;;;;;;;-147.27;100.00;65176.34;5111719;28;20002;-71
2023/08/26 01:28:32;;;;;;;;;;;;;;;-147.27;100.00;65176.34;5107345;28;19982;-72
2023/08/26 01:30:58;;;;;;;;;;;;;;;-147.27;100.00;65176.34;5126980;28;19916;-71
2023/08/26 01:33:25;;;;;;;;;;;;;;;-147.27;100.00;65176.34;5108045;28;19900;-71
2023/08/26 01:35:56;;;;;;;;;;;;;;;-147.27;100.00;65176.34;5096906;28;19965;-71
2023/08/26 01:38:22;;;;;;;;;;;;;;;-147.27;100.00;65176.34;5108082;28;19920;-72
2023/08/26 01:40:52;;;;;;;;;;;;;;;-147.27;100.00;65176.34;5127187;28;19923;-71
2023/08/26 01:43:19;;;;;;;;;;;;;;;-147.27;100.00;65176.34;5113343;28;19920;-71
2023/08/26 01:45:45;;;;;;;;;;;;;;;-147.27;100.00;65176.34;5085792;28;19916;-72
2023/08/26 01:48:10;;;;;;;;;;;;;;;-147.27;100.00;65176.34;5118340;28;19954;-71
2023/08/26 01:50:35;;;;;;;;;;;;;;;-147.27;100.00;65176.34;5091841;28;19983;-71
2023/08/26 01:53:01;;;;;;;;;;;;;;;-147.27;100.00;65176.34;5116209;28;19911;-71
2023/08/26 01:55:26;;;;;;;;;;;;;;;-147.27;100.00;65176.34;5131457;28;19916;-68
2023/08/26 01:57:52;;;;;;;;;;;;;;;-147.27;100.00;65176.34;5131685;28;19920;-68
2023/08/26 02:00:19;;;;;;;;;;;;;;;-147.27;100.00;65176.34;5097571;28;19915;-68
2023/08/26 02:02:44;;;;;;;;;;;;;;;-147.27;100.00;65176.34;5116949;28;19923;-68
2023/08/26 02:05:09;;;;;;;;;;;;;;;-147.27;100.00;65176.34;5115318;28;19942;-68
2023/08/26 02:07:35;;;;;;;;;;;;;;;-147.27;100.00;65176.34;5115548;28;19996;-68
2023/08/26 02:10:01;;;;;;;;;;;;;;;-147.27;100.00;65176.34;5131088;28;19916;-69
2023/08/26 02:12:30;;;;;;;;;;;;;;;-147.27;100.00;65176.34;5124521;28;19916;-68
2023/08/26 02:14:55;;;;;;;;;;;;;;;-147.27;100.00;65176.34;5117891;28;19923;-68
2023/08/26 02:17:20;;;;;;;;;;;;;;;-147.27;100.00;65176.34;5131543;28;19920;-68
2023/08/26 02:19:46;;;;;;;;;;;;;;;-147.27;100.00;65176.34;5127040;28;20299;-68
2023/08/26 02:22:12;;;;;;;;;;;;;;;-147.27;100.00;65176.34;5131233;28;19916;-69
2023/08/26 02:24:38;;;;;;;;;;;;;;;-147.27;100.00;65176.34;5136638;28;19916;-68
2023/08/26 02:27:04;;;;;;;;;;;;;;;-147.27;100.00;65176.34;5131183;28;20723;-67
2023/08/26 02:29:31;;;;;;;;;;;;;;;-147.27;100.00;65176.34;5105948;28;19963;-68
2023/08/26 02:31:57;;;;;;;;;;;;;;;-147.27;100.00;65176.34;5130342;28;19924;-68
2023/08/26 02:34:25;;;;;;;;;;;;;;;-147.27;100.00;65176.34;5114967;28;19923;-68
2023/08/26 02:36:51;;;;;;;;;;;;;;;-147.27;100.00;65176.34;5131156;28;19916;-68
2023/08/26 02:39:17;;;;;;;;;;;;;;;-147.27;100.00;65176.34;5103017;28;19916;-67
2023/08/26 02:41:44;;;;;;;;;;;;;;;-147.27;100.00;65176.34;5114980;28;19919;-68
2023/08/26 02:44:10;;;;;;;;;;;;;;;-147.27;100.00;65176.34;5123615;28;19955;-68
2023/08/26 02:46:36;;;;;;;;;;;;;;;-147.27;100.00;65176.34;5101250;28;19926;-67
2023/08/26 02:49:02;;;;;;;;;;;;;;;-147.27;100.00;65176.34;5114895;28;19916;-68
2023/08/26 02:51:27;;;;;;;;;;;;;;;-147.27;100.00;65176.34;5131040;28;19920;-68
2023/08/26 02:53:53;;;;;;;;;;;;;;;-147.27;100.00;65176.34;5143899;28;19915;-68
2023/08/26 02:56:19;;;;;;;;;;;;;;;-147.27;100.00;65176.34;5120300;28;19916;-68
2023/08/26 02:58:44;;;;;;;;;;;;;;;-147.27;100.00;65176.34;5135219;28;19916;-68
2023/08/26 03:01:10;;;;;;;;;;;;;;;-147.27;100.00;65176.34;5118701;28;19920;-68
2023/08/26 03:03:35;;;;;;;;;;;;;;;-147.27;100.00;65176.34;5120493;28;19938;-68
2023/08/26 03:06:02;;;;;;;;;;;;;;;-147.27;100.00;65176.34;5122132;28;19927;-68
2023/08/26 03:08:28;;;;;;;;;;;;;;;-147.27;100.00;65176.34;5118899;28;20378;-67
2023/08/26 03:10:55;;;;;;;;;;;;;;;-147.27;100.00;65176.34;5134934;28;19937;-68
2023/08/26 03:13:21;;;;;;;;;;;;;;;-147.27;100.00;65176.34;5100621;28;19987;-68
2023/08/26 03:15:47;;;;;;;;;;;;;;;-147.27;100.00;65176.34;5134478;27;19923;-68
2023/08/26 03:18:13;;;;;;;;;;;;;;;-147.27;100.00;65176.34;5102836;28;19916;-67
2023/08/26 03:20:38;;;;;;;;;;;;;;;-147.27;100.00;65176.34;5104821;28;19916;-68
2023/08/26 03:23:04;;;;;;;;;;;;;;;-147.27;100.00;65176.34;5134297;28;19920;-67
2023/08/26 03:25:29;;;;;;;;;;;;;;;-147.27;100.00;65176.34;5134308;28;19927;-68
2023/08/26 03:27:57;;;;;;;;;;;;;;;-147.27;100.00;65176.34;5117612;28;21480;-67
2023/08/26 03:30:22;;;;;;;;;;;;;;;-147.27;100.00;65176.34;5103613;28;19916;-68
2023/08/26 03:32:48;;;;;;;;;;;;;;;-147.27;100.00;65176.34;5134454;27;20018;-69
2023/08/26 03:35:16;;;;;;;;;;;;;;;-147.27;100.00;65176.34;5117930;28;19963;-68
2023/08/26 03:37:42;;;;;;;;;;;;;;;-147.27;100.00;65176.34;5100487;28;19920;-68
2023/08/26 03:40:09;;;;;;;;;;;;;;;-147.27;100.00;65176.34;5117860;28;19990;-68
2023/08/26 03:42:35;;;;;;;;;;;;;;;-147.27;100.00;65176.34;5083870;28;19926;-68
2023/08/26 03:45:01;;;;;;;;;;;;;;;-147.27;100.00;65176.34;5117940;28;19975;-68
2023/08/26 03:47:26;;;;;;;;;;;;;;;-147.27;100.00;65176.34;5134123;28;19920;-68
2023/08/26 03:49:53;;;;;;;;;;;;;;;-147.27;100.00;65176.34;5144354;27;19915;-67
2023/08/26 03:52:18;;;;;;;;;;;;;;;-147.27;100.00;65176.34;5117778;28;19916;-68
2023/08/26 03:54:44;;;;;;;;;;;;;;;-147.27;100.00;65176.34;5103576;28;19916;-68
2023/08/26 03:57:09;;;;;;;;;;;;;;;-147.27;100.00;65176.34;5133960;28;19927;-69
2023/08/26 03:59:35;;;;;;;;;;;;;;;-147.27;100.00;65176.34;5140919;27;19959;-67
2023/08/26 04:02:02;;;;;;;;;;;;;;;-147.27;100.00;65176.34;5132330;28;19920;-68
2023/08/26 04:04:29;;;;;;;;;;;;;;;-147.27;100.00;65176.34;5099710;28;19916;-68
2023/08/26 04:06:57;;;;;;;;;;;;;;;-147.27;100.00;65176.34;5133272;28;19973;-68
2023/08/26 04:09:23;;;;;;;;;;;;;;;-147.27;100.00;65176.34;5132370;28;20147;-68
2023/08/26 04:11:49;;;;;;;;;;;;;;;-147.27;100.00;65176.34;5108579;28;19923;-68
2023/08/26 04:14:15;;;;;;;;;;;;;;;-147.27;100.00;65176.34;5097669;28;19976;-69
2023/08/26 04:16:40;;;;;;;;;;;;;;;-147.27;100.00;65176.34;5108844;28;19920;-68
2023/08/26 04:19:06;;;;;;;;;;;;;;;-147.27;100.00;65176.34;5118275;28;19924;-68
2023/08/26 04:21:31;;;;;;;;;;;;;;;-147.27;100.00;65176.34;5132617;28;19931;-69
2023/08/26 04:23:57;;;;;;;;;;;;;;;-147.27;100.00;65176.34;5117057;28;19924;-69
2023/08/26 04:26:23;;;;;;;;;;;;;;;-147.27;100.00;65176.34;5141541;27;19966;-68
2023/08/26 04:28:49;;;;;;;;;;;;;;;-147.27;100.00;65176.34;5116728;28;19938;-67
2023/08/26 04:31:15;;;;;;;;;;;;;;;-147.27;100.00;65176.34;5099043;28;20007;-68
2023/08/26 04:33:43;;;;;;;;;;;;;;;-147.27;100.00;65176.34;5098636;28;19920;-68
2023/08/26 04:36:11;;;;;;;;;;;;;;;-147.27;100.00;65176.34;5099194;28;19983;-69
2023/08/26 04:38:36;;;;;;;;;;;;;;;-147.27;100.00;65176.34;5132993;28;19920;-67
2023/08/26 04:41:02;;;;;;;;;;;;;;;-147.27;100.00;65176.34;5098850;28;19923;-68
2023/08/26 04:43:28;;;;;;;;;;;;;;;-147.27;100.00;65176.34;5116539;28;19916;-67
2023/08/26 04:45:55;;;;;;;;;;;;;;;-147.27;100.00;65176.34;5116846;28;19955;-68
2023/08/26 04:48:20;;;;;;;;;;;;;;;-147.27;100.00;65176.34;5116494;28;19924;-68
2023/08/26 04:50:46;;;;;;;;;;;;;;;-147.27;100.00;65176.34;5089454;28;19944;-68
2023/08/26 04:53:11;;;;;;;;;;;;;;;-147.27;100.00;65176.34;5113288;28;19938;-69
2023/08/26 04:55:37;;;;;;;;;;;;;;;-147.27;100.00;65176.34;5108012;28;19922;-68
2023/08/26 04:58:03;;;;;;;;;;;;;;;-147.27;100.00;65176.34;5135492;27;19916;-67
2023/08/26 05:00:28;;;;;;;;;;;;;;;-147.27;100.00;65176.34;5098318;28;19920;-68
2023/08/26 05:02:54;;;;;;;;;;;;;;;-147.27;100.00;65176.34;5116089;28;19923;-66
2023/08/26 05:05:20;;;;;;;;;;;;;;;-147.27;100.00;65176.34;5132123;28;19920;-68
2023/08/26 05:07:45;;;;;;;;;;;;;;;-147.27;100.00;65176.34;5132169;28;19920;-68
2023/08/26 05:10:12;;;;;;;;;;;;;;;-147.27;100.00;65176.34;5116214;28;19916;-69
2023/08/26 05:12:37;;;;;;;;;;;;;;;-147.27;100.00;65176.34;5116145;28;19916;-67
2023/08/26 05:15:04;;;;;;;;;;;;;;;-147.27;100.00;65176.34;5115765;28;19916;-68
2023/08/26 05:17:29;;;;;;;;;;;;;;;-147.27;100.00;65176.34;5117272;28;19991;-68
2023/08/26 05:19:55;;;;;;;;;;;;;;;-147.27;100.00;65176.34;5097507;28;19923;-68
2023/08/26 05:22:22;;;;;;;;;;;;;;;-147.27;100.00;65176.34;5098031;28;19920;-67
2023/08/26 05:24:47;;;;;;;;;;;;;;;-147.27;100.00;65176.34;5115924;28;19927;-69
2023/08/26 05:27:17;;;;;;;;;;;;;;;-147.27;100.00;65176.34;5094352;28;20378;-68
2023/08/26 05:29:43;;;;;;;;;;;;;;;-147.27;100.00;65176.34;5118408;28;19916;-68
2023/08/26 05:32:08;;;;;;;;;;;;;;;-147.27;100.00;65176.34;5098114;28;19987;-68
2023/08/26 05:34:35;;;;;;;;;;;;;;;-147.27;100.00;65176.34;5098057;28;19947;-68
2023/08/26 05:37:01;;;;;;;;;;;;;;;-147.27;100.00;65176.34;5113797;28;19991;-67
2023/08/26 05:39:28;;;;;;;;;;;;;;;-147.27;100.00;65176.34;5103981;28;19916;-68
2023/08/26 05:41:54;;;;;;;;;;;;;;;-147.27;100.00;65176.34;5131869;28;19916;-68
2023/08/26 05:44:19;;;;;;;;;;;;;;;-147.27;100.00;65176.34;5131848;28;19946;-68
2023/08/26 05:46:46;;;;;;;;;;;;;;;-147.27;100.00;65176.34;5106146;28;19926;-68
2023/08/26 05:49:11;;;;;;;;;;;;;;;-147.27;100.00;65176.34;5131849;28;19916;-68
2023/08/26 05:51:37;;;;;;;;;;;;;;;-147.27;100.00;65176.34;5097926;28;19920;-67
2023/08/26 05:54:02;;;;;;;;;;;;;;;-147.27;100.00;65176.34;5115476;28;19916;-67
2023/08/26 05:56:28;;;;;;;;;;;;;;;-147.27;100.00;65176.34;5097472;28;20006;-68
2023/08/26 05:58:55;;;;;;;;;;;;;;;-147.27;100.00;65176.34;5131622;28;19983;-69
2023/08/26 06:01:21;;;;;;;;;;;;;;;-147.27;100.00;65176.34;5131479;28;19931;-68
2023/08/26 06:03:47;;;;;;;;;;;;;;;-147.27;100.00;65176.34;5097997;28;19916;-69
2023/08/26 06:06:12;;;;;;;;;;;;;;;-147.27;100.00;65176.34;5099497;28;19922;-68
2023/08/26 06:08:38;;;;;;;;;;;;;;;-147.27;100.00;65176.34;5131759;28;19916;-67
2023/08/26 06:11:04;;;;;;;;;;;;;;;-147.27;100.00;65176.34;5131458;28;19943;-68
2023/08/26 06:13:29;;;;;;;;;;;;;;;-147.27;100.00;65176.34;5097669;28;19916;-67
2023/08/26 06:15:57;;;;;;;;;;;;;;;-147.27;100.00;65176.34;5097535;28;19988;-67
2023/08/26 06:18:23;;;;;;;;;;;;;;;-147.27;100.00;65176.34;5107152;28;19921;-67
2023/08/26 06:20:50;;;;;;;;;;;;;;;-147.27;100.00;65176.34;5115176;28;19916;-66
2023/08/26 06:23:16;;;;;;;;;;;;;;;-147.27;100.00;65176.34;5097526;28;19983;-68
2023/08/26 06:25:53;;;;;;;;;;;;;;;-147.27;100.00;65176.34;5131154;28;19975;-68
2023/08/26 06:28:18;;;;;;;;;;;;;;;-147.27;100.00;65176.34;5097333;28;19920;-68
2023/08/26 06:30:45;;;;;;;;;;;;;;;-147.27;100.00;65176.34;5133633;28;19979;-67
2023/08/26 06:33:12;;;;;;;;;;;;;;;-147.27;100.00;65176.34;5101508;28;19916;-68
2023/08/26 06:35:37;;;;;;;;;;;;;;;-147.27;100.00;65176.34;5118366;28;19920;-67
2023/08/26 06:38:03;;;;;;;;;;;;;;;-147.27;100.00;65176.34;5119366;28;20003;-67
2023/08/26 06:40:33;;;;;;;;;;;;;;;-147.27;100.00;65176.34;5134989;28;19911;-67
2023/08/26 06:42:59;;;;;;;;;;;;;;;-147.27;100.00;65176.34;5135432;28;19915;-67
2023/08/26 06:45:25;;;;;;;;;;;;;;;-147.27;100.00;65176.34;5134949;27;19944;-67
2023/08/26 06:47:50;;;;;;;;;;;;;;;-147.27;100.00;65176.34;5119038;28;20024;-66
2023/08/26 06:50:16;;;;;;;;;;;;;;;-147.27;100.00;65176.34;5117661;28;19923;-67
2023/08/26 06:52:41;;;;;;;;;;;;;;;-147.27;100.00;65176.34;5118897;28;19917;-68
2023/08/26 06:55:09;;;;;;;;;;;;;;;-147.27;100.00;65176.34;5101046;28;19916;-67
2023/08/26 06:57:35;;;;;;;;;;;;;;;-147.27;100.00;65176.34;5117959;28;19923;-67
2023/08/26 07:00:02;;;;;;;;;;;;;;;-147.27;100.00;65176.34;5118818;28;19924;-67
2023/08/26 07:02:28;;;;;;;;;;;;;;;-147.27;100.00;65176.34;5118451;28;19916;-68
2023/08/26 07:04:53;;;;;;;;;;;;;;;-147.27;100.00;65176.34;5118661;28;19916;-68
2023/08/26 07:07:19;;;;;;;;;;;;;;;-147.27;100.00;65176.34;5118312;28;19920;-66
2023/08/26 07:09:44;;;;;;;;;;;;;;;-147.27;100.00;65176.34;5120995;28;19916;-66
2023/08/26 07:12:10;;;;;;;;;;;;;;;-147.27;100.00;65176.34;5124031;28;19931;-69
2023/08/26 07:14:35;;;;;;;;;;;;;;;-147.27;100.00;65176.34;5118935;28;19950;-66
2023/08/26 07:17:01;;;;;;;;;;;;;;;-147.27;100.00;65176.34;5118599;28;19931;-66
2023/08/26 07:19:26;;;;;;;;;;;;;;;-147.27;100.00;65176.34;5109286;28;19916;-67
2023/08/26 07:21:51;;;;;;;;;;;;;;;-147.27;100.00;65176.34;5108340;28;20359;-66
2023/08/26 07:24:17;;;;;;;;;;;;;;;-147.27;100.00;65176.34;5114070;28;19991;-67
2023/08/26 07:26:43;;;;;;;;;;;;;;;-147.27;100.00;65176.34;5098012;28;19924;-66
2023/08/26 07:29:08;;;;;;;;;;;;;;;-147.27;100.00;65176.34;5113027;28;19916;-66
2023/08/26 07:31:34;;;;;;;;;;;;;;;-147.27;100.00;65176.34;5119630;28;20407;-65
2023/08/26 07:33:59;;;;;;;;;;;;;;;-147.27;100.00;65176.34;5116741;28;19942;-67
2023/08/26 07:36:24;;;;;;;;;;;;;;;-147.27;100.00;65176.34;5117404;28;19944;-66
2023/08/26 07:38:50;;;;;;;;;;;;;;;-147.27;100.00;65176.34;5117861;28;19920;-67
2023/08/26 07:41:15;;;;;;;;;;;;;;;-147.27;100.00;65176.34;5128338;28;19927;-68
2023/08/26 07:43:41;;;;;;;;;;;;;;;-147.27;100.00;65176.34;5126315;28;19958;-67
2023/08/26 07:46:06;;;;;;;;;;;;;;;-147.27;100.00;65176.34;5117320;28;19916;-67
2023/08/26 07:48:32;;;;;;;;;;;;;;;-147.27;100.00;65176.34;5116779;28;19919;-67
2023/08/26 07:50:57;;;;;;;;;;;;;;;-147.27;100.00;65176.34;5121027;28;19916;-67
2023/08/26 07:53:23;;;;;;;;;;;;;;;-147.27;100.00;65176.34;5125951;28;19916;-66
2023/08/26 07:55:48;;;;;;;;;;;;;;;-147.27;100.00;65176.34;5098165;28;19983;-66
2023/08/26 07:58:14;;;;;;;;;;;;;;;-147.27;100.00;65176.34;5105529;28;19916;-67
2023/08/26 08:00:39;;;;;;;;;;;;;;;-147.27;100.00;65176.34;5114946;28;19926;-66
2023/08/26 08:03:05;;;;;;;;;;;;;;;-147.27;100.00;65176.34;5122642;28;19916;-66
2023/08/26 08:05:30;;;;;;;;;;;;;;;-147.27;100.00;65176.34;5115716;28;19920;-66
2023/08/26 08:07:56;;;;;;;;;;;;;;;-147.27;100.00;65176.34;5116516;28;20000;-67
2023/08/26 08:10:21;;;;;;;;;;;;;;;-147.27;100.00;65176.34;5114799;28;19942;-67
2023/08/26 08:12:47;;;;;;;;;;;;;;;-147.27;100.00;65176.34;5119807;28;19979;-67
2023/08/26 08:15:13;;;;;;;;;;;;;;;-147.27;100.00;65176.34;5105411;28;19916;-66
2023/08/26 08:17:38;;;;;;;;;;;;;;;-147.27;100.00;65176.34;5117012;28;19916;-67
2023/08/26 08:20:03;;;;;;;;;;;;;;;-147.27;100.00;65176.34;5110934;28;19923;-67
2023/08/26 08:22:36;;;;;;;;;;;;;;;-147.27;100.00;65176.34;5119467;28;19917;-68
2023/08/26 08:25:02;;;;;;;;;;;;;;;-147.27;100.00;65176.34;5108463;28;19916;-67
2023/08/26 08:27:28;;;;;;;;;;;;;;;-147.27;100.00;65176.34;5116578;28;20007;-67
2023/08/26 08:29:54;;;;;;;;;;;;;;;-147.27;100.00;65176.34;5116916;28;19916;-67
2023/08/26 08:32:19;;;;;;;;;;;;;;;-147.27;100.00;65176.34;5119521;28;19916;-67
2023/08/26 08:34:45;;;;;;;;;;;;;;;-147.27;100.00;65176.34;5104548;28;19916;-66
2023/08/26 08:37:10;;;;;;;;;;;;;;;-147.27;100.00;65176.34;5115145;28;19919;-67
2023/08/26 08:39:36;;;;;;;;;;;;;;;-147.27;100.00;65176.34;5099434;28;19982;-66
2023/08/26 08:42:04;;;;;;;;;;;;;;;-147.27;100.00;65176.34;5123255;28;19936;-67
2023/08/26 08:44:32;;;;;;;;;;;;;;;-147.27;100.00;65176.34;5116670;28;19953;-67
2023/08/26 08:46:58;;;;;;;;;;;;;;;-147.27;100.00;65176.34;5115820;28;19949;-67
2023/08/26 08:49:24;;;;;;;;;;;;;;;-147.27;100.00;65176.34;5131579;28;19916;-67
2023/08/26 08:51:50;;;;;;;;;;;;;;;-147.27;100.00;65176.34;5116537;28;19951;-67
2023/08/26 08:54:16;;;;;;;;;;;;;;;-147.27;100.00;65176.34;5120712;28;19916;-68
2023/08/26 08:56:42;;;;;;;;;;;;;;;-147.27;100.00;65176.34;5115204;28;19923;-68
2023/08/26 08:59:09;;;;;;;;;;;;;;;-147.27;100.00;65176.34;5114655;28;19912;-67
2023/08/26 09:01:35;;;;;;;;;;;;;;;-147.27;100.00;65176.34;5115380;28;19931;-67
2023/08/26 09:04:01;;;;;;;;;;;;;;;-147.27;100.00;65176.34;5122081;28;19926;-66
2023/08/26 09:06:26;;;;;;;;;;;;;;;-147.27;100.00;65176.34;5116243;28;19943;-68
2023/08/26 09:08:53;;;;;;;;;;;;;;;-147.27;100.00;65176.34;5116278;28;19920;-66
2023/08/26 09:11:19;;;;;;;;;;;;;;;-147.27;100.00;65176.34;5116203;28;19916;-68
2023/08/26 09:13:45;;;;;;;;;;;;;;;-147.27;100.00;65176.34;5116137;28;19916;-66
2023/08/26 09:16:10;;;;;;;;;;;;;;;-147.27;100.00;65176.34;5117878;28;19927;-67
2023/08/26 09:18:40;;;;;;;;;;;;;;;-147.27;100.00;65176.34;5119037;28;19928;-68
2023/08/26 09:21:06;;;;;;;;;;;;;;;-147.27;100.00;65176.34;5101386;28;19948;-68
2023/08/26 09:23:39;;;;;;;;;;;;;;;-147.27;100.00;65176.34;5107733;28;19943;-66
2023/08/26 09:26:05;;;;;;;;;;;;;;;-147.27;100.00;65176.34;5108163;28;19916;-67
2023/08/26 09:28:34;;;;;;;;;;;;;;;-147.27;100.00;65176.34;5110485;28;19933;-66
2023/08/26 09:31:02;;;;;;;;;;;;;;;-147.27;100.00;65176.34;5115537;28;19912;-67
2023/08/26 09:33:27;;;;;;;;;;;;;;;-147.27;100.00;65176.34;5103226;28;19917;-67
2023/08/26 09:35:52;;;;;;;;;;;;;;;-147.27;100.00;65176.34;5111118;28;19924;-67
2023/08/26 09:38:18;;;;;;;;;;;;;;;-147.27;100.00;65176.34;5103101;28;19991;-67
2023/08/26 09:40:43;;;;;;;;;;;;;;;-147.27;100.00;65176.34;5097758;28;19916;-67
2023/08/26 09:43:09;;;;;;;;;;;;;;;-147.27;100.00;65176.34;5117120;28;19916;-68
2023/08/26 09:45:36;;;;;;;;;;;;;;;-147.27;100.00;65176.34;5109341;28;19916;-68
2023/08/26 09:48:01;;;;;;;;;;;;;;;-147.27;100.00;65176.34;5117437;28;19962;-67
2023/08/26 09:50:33;;;;;;;;;;;;;;;-147.27;100.00;65176.34;5115502;28;19916;-67
2023/08/26 09:52:58;;;;;;;;;;;;;;;-147.27;100.00;65176.34;5122397;28;19937;-67
2023/08/26 09:55:24;;;;;;;;;;;;;;;-147.27;100.00;65176.34;5113467;28;19920;-67
2023/08/26 09:57:52;;;;;;;;;;;;;;;-147.27;100.00;65176.34;5113535;28;19955;-67
2023/08/26 10:00:19;;;;;;;;;;;;;;;-147.27;100.00;65176.34;5113395;28;19972;-67
2023/08/26 10:02:49;;;;;;;;;;;;;;;-147.27;100.00;65176.34;5113519;28;19912;-67
2023/08/26 10:05:21;;;;;;;;;;;;;;;-147.27;100.00;65176.34;5102260;28;19999;-69
2023/08/26 10:07:48;;;;;;;;;;;;;;;-147.27;100.00;65176.34;5110485;28;19920;-63
2023/08/26 10:10:28;;;;;;;;;;;;;;;-147.27;100.00;65176.34;5114625;28;19937;-63
2023/08/26 10:12:56;;;;;;;;;;;;;;;-147.27;100.00;65176.34;5122591;28;19926;-63
2023/08/26 10:15:23;;;;;;;;;;;;;;;-147.27;100.00;65176.34;5111810;28;19923;-63
2023/08/26 10:17:52;;;;;;;;;;;;;;;-147.27;100.00;65176.34;5107190;28;19916;-62
2023/08/26 10:20:18;;;;;;;;;;;;;;;-147.27;100.00;65176.34;5104951;28;19924;-63
2023/08/26 10:22:43;;;;;;;;;;;;;;;-147.27;100.00;65176.34;5119110;28;19924;-62
2023/08/26 10:25:10;;;;;;;;;;;;;;;-147.27;100.00;65176.34;5115065;28;19916;-62
2023/08/26 10:27:36;;;;;;;;;;;;;;;-147.27;100.00;65176.34;5107530;28;19926;-62
2023/08/26 10:30:03;;;;;;;;;;;;;;;-147.27;100.00;65176.34;5104322;28;19912;-62
2023/08/26 10:32:28;;;;;;;;;;;;;;;-147.27;100.00;65176.34;5111383;28;19922;-61
2023/08/26 10:34:54;;;;;;;;;;;;;;;-147.27;100.00;65176.34;5098789;28;19916;-62
2023/08/26 10:37:22;;;;;;;;;;;;;;;-147.27;100.00;65176.34;5114920;28;19973;-62
2023/08/26 10:39:47;;;;;;;;;;;;;;;-147.27;100.00;65176.34;5114590;28;19984;-62
2023/08/26 10:42:16;;;;;;;;;;;;;;;-147.27;100.00;65176.34;5119763;28;19916;-63
2023/08/26 10:44:44;;;;;;;;;;;;;;;-147.27;100.00;65176.34;5118067;28;19927;-62
2023/08/26 10:47:11;;;;;;;;;;;;;;;-147.27;100.00;65176.34;5108105;28;19924;-62
2023/08/26 10:49:37;;;;;;;;;;;;;;;-147.27;100.00;65176.34;5112378;28;19927;-62
2023/08/26 10:52:16;;;;;;;;;;;;;;;-147.27;100.00;65176.34;5104968;28;19912;-63
2023/08/26 10:54:43;;;;;;;;;;;;;;;-147.27;100.00;65176.34;5113504;28;19923;-62
2023/08/26 10:57:09;;;;;;;;;;;;;;;-147.27;100.00;65176.34;5114242;28;19916;-62
2023/08/26 10:59:35;;;;;;;;;;;;;;;-147.27;100.00;65176.34;5112161;28;20007;-57
2023/08/26 11:02:05;;;;;;;;;;;;;;;-147.27;100.00;65176.34;5095821;28;19916;-57
2023/08/26 11:04:31;;;;;;;;;;;;;;;-147.27;100.00;65176.34;5113958;28;19920;-58
2023/08/26 11:06:57;;;;;;;;;;;;;;;-147.27;100.00;65176.34;5104984;28;19992;-58
2023/08/26 11:09:22;;;;;;;;;;;;;;;-147.27;100.00;65176.34;5114237;28;19916;-59
2023/08/26 11:11:48;;;;;;;;;;;;;;;-147.27;100.00;65176.34;5114509;28;19916;-59
2023/08/26 11:14:13;;;;;;;;;;;;;;;-147.27;100.00;65176.34;5115207;28;19959;-58
2023/08/26 11:16:39;;;;;;;;;;;;;;;-147.27;100.00;65176.34;5101592;28;19917;-56
2023/08/26 11:19:05;;;;;;;;;;;;;;;-147.27;100.00;65176.34;5110469;28;19984;-59
2023/08/26 11:21:35;;;;;;;;;;;;;;;-147.27;100.00;65176.34;5106582;28;20352;-58
2023/08/26 11:24:01;;;;;;;;;;;;;;;-147.27;100.00;65176.34;5118194;28;19950;-58
2023/08/26 11:26:27;;;;;;;;;;;;;;;-147.27;100.00;65176.34;5114639;28;19916;-55
2023/08/26 11:28:52;;;;;;;;;;;;;;;-147.27;100.00;65176.34;5114924;28;19923;-58
2023/08/26 11:31:18;;;;;;;;;;;;;;;-147.27;100.00;65176.34;5102351;28;19972;-60
2023/08/26 11:33:45;;;;;;;;;;;;;;;-147.27;100.00;65176.34;5124909;28;19983;-59
2023/08/26 11:36:11;;;;;;;;;;;;;;;-147.27;100.00;65176.34;5121590;28;19916;-58
2023/08/26 11:38:37;;;;;;;;;;;;;;;-147.27;100.00;65176.34;5118002;28;19920;-58
2023/08/26 11:41:06;;;;;;;;;;;;;;;-147.27;100.00;65176.34;5117709;28;19916;-59
2023/08/26 11:43:33;;;;;;;;;;;;;;;-147.27;100.00;65176.34;5116594;28;19916;-60
2023/08/26 11:45:59;;;;;;;;;;;;;;;-147.27;100.00;65176.34;5115964;28;19913;-58
2023/08/26 11:48:24;;;;;;;;;;;;;;;-147.27;100.00;65176.34;5116268;28;20003;-59
2023/08/26 11:50:52;;;;;;;;;;;;;;;-147.27;100.00;65176.34;5100731;28;19979;-58
2023/08/26 11:53:22;;;;;;;;;;;;;;;-147.27;100.00;65176.34;5112388;28;19911;-58
2023/08/26 11:55:47;;;;;;;;;;;;;;;-147.27;100.00;65176.34;5113062;28;19919;-59
2023/08/26 11:58:12;;;;;;;;;;;;;;;-147.27;100.00;65176.34;5105701;28;19975;-59
2023/08/26 12:00:38;;;;;;;;;;;;;;;-147.27;100.00;65176.34;5117138;28;19927;-59
2023/08/26 12:03:06;;;;;;;;;;;;;;;-147.27;100.00;65176.34;5117674;28;19916;-57
2023/08/26 12:05:45;;;;;;;;;;;;;;;-147.27;100.00;65176.34;5114221;28;19991;-57
2023/08/26 12:08:15;;;;;;;;;;;;;;;-147.27;100.00;65176.34;5117297;28;19924;-59
2023/08/26 12:10:40;;;;;;;;;;;;;;;-147.27;100.00;65176.34;5117340;28;19916;-58
2023/08/26 12:13:06;;;;;;;;;;;;;;;-147.27;100.00;65176.34;5117334;28;19995;-58